Time;durP1;ratioP1;P1;durP2;ratioP2;P2;SDS_P1;SDS_P2;PMS_P1;PMS_P2;Temp;Humidity;BMP_temperature;BMP_pressure;BME280_temperature;BME280_humidity;BME280_pressure;Samples;Min_cycle;Max_cycle;Signal;HPM_P1;HPM_P2
2024/03/31 00:01:17;;;;;;;5.03;3.05;;;;;;;21.85;33.77;98949.94;4535828;28;20144;-50
2024/03/31 00:03:28;;;;;;;5.43;3.05;;;;;;;21.85;33.96;98954.88;4534732;28;20033;-52
2024/03/31 00:05:38;;;;;;;4.47;2.65;;;;;;;21.84;33.90;98948.31;4533041;28;20037;-48
2024/03/31 00:07:48;;;;;;;4.47;2.97;;;;;;;21.84;33.75;98948.31;4534078;28;20037;-52
2024/03/31 00:09:59;;;;;;;4.25;2.90;;;;;;;21.85;33.72;98944.19;4533785;28;20025;-48
2024/03/31 00:12:09;;;;;;;5.53;2.92;;;;;;;21.85;33.96;98952.00;4534477;28;20410;-48
2024/03/31 00:14:20;;;;;;;4.38;2.67;;;;;;;21.83;33.26;98949.56;4534381;28;20045;-51
2024/03/31 00:16:30;;;;;;;3.53;2.70;;;;;;;21.83;33.32;98945.84;4534335;28;20043;-48
2024/03/31 00:18:41;;;;;;;5.28;2.83;;;;;;;21.84;33.26;98941.75;4533463;28;23747;-48
2024/03/31 00:20:55;;;;;;;4.78;3.08;;;;;;;21.83;33.56;98952.44;4536276;28;20036;-49
2024/03/31 00:23:06;;;;;;;4.38;2.60;;;;;;;21.83;33.08;98946.69;4517503;28;20041;-49
2024/03/31 00:25:16;;;;;;;4.82;3.03;;;;;;;21.82;33.60;98950.78;4533402;28;20039;-48
2024/03/31 00:27:27;;;;;;;3.75;2.38;;;;;;;21.82;33.40;98955.69;4534461;28;20128;-48
2024/03/31 00:29:37;;;;;;;3.42;2.45;;;;;;;21.82;33.67;98945.03;4518013;28;20113;-48
2024/03/31 00:31:48;;;;;;;3.75;2.40;;;;;;;21.82;33.87;98941.31;4534796;28;20144;-50
2024/03/31 00:33:58;;;;;;;4.68;2.50;;;;;;;21.81;33.48;98943.41;4526263;28;20085;-48
2024/03/31 00:36:09;;;;;;;5.07;2.42;;;;;;;21.81;34.00;98943.41;4533071;28;20485;-50
2024/03/31 00:38:20;;;;;;;3.22;2.65;;;;;;;21.81;34.13;98943.41;4534663;28;20037;-52
2024/03/31 00:40:30;;;;;;;3.65;2.45;;;;;;;21.80;34.07;98936.00;4523226;28;20034;-51
2024/03/31 00:42:40;;;;;;;4.50;2.83;;;;;;;21.81;34.34;98931.09;4516191;28;20517;-48
2024/03/31 00:44:51;;;;;;;4.63;2.90;;;;;;;21.80;34.37;98941.75;4525381;28;20036;-51
2024/03/31 00:47:01;;;;;;;5.57;2.80;;;;;;;21.81;34.31;98948.31;4516539;28;20037;-48
2024/03/31 00:49:12;;;;;;;4.07;2.80;;;;;;;21.79;34.13;98939.28;4517678;28;20030;-50
2024/03/31 00:51:22;;;;;;;4.72;2.83;;;;;;;21.79;33.77;98928.63;4519393;28;20113;-48
2024/03/31 00:53:33;;;;;;;3.92;2.85;;;;;;;21.79;33.51;98945.84;4519378;28;20069;-48
2024/03/31 00:55:43;;;;;;;4.15;2.85;;;;;;;21.79;33.54;98939.28;4517541;28;20038;-48
2024/03/31 00:57:53;;;;;;;4.38;2.67;;;;;;;21.79;33.90;98934.38;4525911;28;20077;-49
2024/03/31 01:00:05;;;;;;;4.85;3.00;;;;;;;21.78;33.37;98932.75;4520187;28;20061;-49
2024/03/31 01:02:15;;;;;;;5.15;2.83;;;;;;;21.78;33.12;98934.78;4531442;28;20469;-50
2024/03/31 01:04:26;;;;;;;4.18;2.88;;;;;;;21.78;33.46;98935.63;4524981;28;20041;-51
2024/03/31 01:06:36;;;;;;;3.63;2.60;;;;;;;21.77;33.28;98916.72;4519556;28;20045;-51
2024/03/31 01:08:50;;;;;;;4.53;2.65;;;;;;;21.77;33.37;98925.34;4526954;28;20029;-49
2024/03/31 01:11:01;;;;;;;3.97;2.60;;;;;;;21.77;33.37;98919.59;4534336;28;20038;-49
2024/03/31 01:13:11;;;;;;;4.35;2.58;;;;;;;21.76;33.79;98923.72;4534264;28;20033;-49
2024/03/31 01:15:21;;;;;;;3.35;2.60;;;;;;;21.77;33.31;98919.59;4534018;28;20047;-50
2024/03/31 01:17:33;;;;;;;4.07;2.80;;;;;;;21.76;33.14;98928.63;4518793;28;20603;-50
2024/03/31 01:19:43;;;;;;;3.72;2.63;;;;;;;21.77;33.76;98939.69;4532667;28;20060;-49
2024/03/31 01:21:53;;;;;;;4.85;2.50;;;;;;;21.76;33.43;98940.94;4502808;28;20018;-49
2024/03/31 01:24:04;;;;;;;3.78;2.42;;;;;;;21.76;33.43;98946.69;4533146;28;20384;-51
2024/03/31 01:26:15;;;;;;;5.10;2.80;;;;;;;21.75;33.59;98950.81;4517476;28;20034;-50
2024/03/31 01:28:26;;;;;;;3.72;2.35;;;;;;;21.76;33.55;98957.34;4519736;28;20092;-49
2024/03/31 01:30:37;;;;;;;4.25;2.20;;;;;;;21.75;33.04;98949.94;4525468;28;20033;-50
2024/03/31 01:32:47;;;;;;;3.67;2.25;;;;;;;21.75;33.10;98945.06;4525192;28;20037;-50
2024/03/31 01:34:58;;;;;;;3.38;2.50;;;;;;;21.75;33.12;98942.19;4518108;28;20417;-49
2024/03/31 01:37:08;;;;;;;4.32;2.70;;;;;;;21.74;33.08;98943.38;4518026;28;20045;-49
2024/03/31 01:39:19;;;;;;;6.40;3.17;;;;;;;21.75;33.10;98944.22;4516908;28;20022;-53
2024/03/31 01:41:29;;;;;;;3.97;2.88;;;;;;;21.74;33.39;98943.38;4533434;28;20033;-51
2024/03/31 01:43:40;;;;;;;4.13;2.92;;;;;;;21.74;33.68;98949.13;4518336;28;20025;-50
2024/03/31 01:45:51;;;;;;;4.82;3.40;;;;;;;21.73;33.84;98953.25;4524609;28;20108;-50
2024/03/31 01:48:02;;;;;;;4.95;3.10;;;;;;;21.74;33.48;98966.34;4532296;28;20064;-49
2024/03/31 01:50:12;;;;;;;3.88;3.10;;;;;;;21.72;33.96;98951.56;4532927;28;20041;-49
2024/03/31 01:52:23;;;;;;;5.85;3.13;;;;;;;21.73;33.91;98952.41;4517616;28;20044;-49
2024/03/31 01:54:37;;;;;;;4.25;2.80;;;;;;;21.72;33.56;98956.53;4524994;28;20041;-52
2024/03/31 01:56:48;;;;;;;4.32;2.80;;;;;;;21.72;33.70;98965.94;4513993;28;20949;-50
2024/03/31 01:58:58;;;;;;;3.95;2.53;;;;;;;21.72;33.56;98956.53;4525657;28;20037;-49
2024/03/31 02:01:09;;;;;;;4.40;2.45;;;;;;;21.72;33.83;98962.28;4532293;28;20025;-49
2024/03/31 02:03:19;;;;;;;3.25;2.60;;;;;;;21.71;33.79;98967.19;4525860;28;20045;-49
2024/03/31 02:05:30;;;;;;;4.53;3.10;;;;;;;21.71;33.82;98972.09;4518031;28;20087;-49
2024/03/31 02:07:41;;;;;;;3.97;2.88;;;;;;;21.71;33.86;98969.22;4519165;28;20065;-50
2024/03/31 02:09:51;;;;;;;4.45;3.15;;;;;;;21.70;33.79;98961.84;4535167;28;20037;-49
2024/03/31 02:12:03;;;;;;;4.50;2.70;;;;;;;21.70;34.11;98968.44;4514973;28;20061;-49
2024/03/31 02:14:13;;;;;;;3.50;2.80;;;;;;;21.69;34.12;98969.63;4515385;28;20021;-49
2024/03/31 02:16:23;;;;;;;3.70;2.80;;;;;;;21.70;34.21;98973.34;4517912;28;20033;-53
2024/03/31 02:18:34;;;;;;;3.42;2.55;;;;;;;21.69;34.33;98957.34;4518463;28;20033;-50
2024/03/31 02:20:44;;;;;;;3.95;2.90;;;;;;;21.69;33.95;98968.84;4515836;28;20053;-49
2024/03/31 02:22:55;;;;;;;4.57;2.55;;;;;;;21.68;34.26;98973.75;4532872;28;20034;-49
2024/03/31 02:25:05;;;;;;;5.28;2.80;;;;;;;21.68;34.05;98973.75;4533846;28;20096;-50
2024/03/31 02:27:16;;;;;;;4.18;2.90;;;;;;;21.68;34.26;98976.63;4517950;28;20037;-49
2024/03/31 02:29:29;;;;;;;3.85;2.85;;;;;;;21.68;34.26;98968.00;4517301;28;20569;-49
2024/03/31 02:31:40;;;;;;;3.78;2.60;;;;;;;21.64;34.01;98967.22;4518199;28;20038;-50
2024/03/31 02:33:50;;;;;;;5.22;2.67;;;;;;;21.68;33.87;98970.06;4532488;28;20112;-49
2024/03/31 02:36:01;;;;;;;4.90;2.53;;;;;;;21.66;34.23;98970.47;4518498;28;20032;-49
2024/03/31 02:38:11;;;;;;;3.63;2.40;;;;;;;21.67;34.37;98963.50;4524043;28;20149;-51
2024/03/31 02:40:22;;;;;;;4.47;2.60;;;;;;;21.66;34.23;98958.19;4532000;28;20017;-49
2024/03/31 02:42:33;;;;;;;3.10;2.50;;;;;;;21.66;34.29;98969.69;4525441;28;20048;-53
2024/03/31 02:44:43;;;;;;;4.50;2.50;;;;;;;21.65;33.99;98968.84;4517827;28;20058;-49
2024/03/31 02:46:54;;;;;;;2.95;2.33;;;;;;;21.65;34.38;98968.84;4518038;28;20033;-50
2024/03/31 02:49:04;;;;;;;4.88;2.78;;;;;;;21.65;34.60;98962.28;4517741;28;20037;-50
2024/03/31 02:51:14;;;;;;;3.72;2.67;;;;;;;21.65;34.06;98968.00;4532945;28;20037;-49
2024/03/31 02:53:25;;;;;;;4.35;2.70;;;;;;;21.65;34.39;98962.28;4524187;28;20038;-49
2024/03/31 02:55:35;;;;;;;3.97;2.70;;;;;;;21.65;34.08;98968.84;4524366;28;20041;-50
2024/03/31 02:57:49;;;;;;;5.38;2.92;;;;;;;21.64;34.51;98957.78;4516517;28;20045;-49
2024/03/31 03:00:00;;;;;;;3.88;2.35;;;;;;;21.64;34.13;98961.47;4513337;28;20018;-49
2024/03/31 03:02:10;;;;;;;4.85;2.65;;;;;;;21.64;34.26;98961.47;4516658;28;20033;-49
2024/03/31 03:04:20;;;;;;;3.40;2.70;;;;;;;21.63;34.68;98959.81;4517767;28;20029;-49
2024/03/31 03:06:31;;;;;;;2.85;2.47;;;;;;;21.63;34.33;98954.06;4516329;28;20467;-49
2024/03/31 03:08:41;;;;;;;6.45;2.95;;;;;;;21.63;34.54;98965.56;4530651;28;20038;-49
2024/03/31 03:10:57;;;;;;;3.50;2.50;;;;;;;21.63;34.47;98959.00;4516987;28;20041;-49
2024/03/31 03:13:08;;;;;;;3.90;2.60;;;;;;;21.62;34.77;98961.06;4524444;28;20545;-49
2024/03/31 03:15:18;;;;;;;3.85;2.72;;;;;;;21.62;34.34;98958.19;4516823;28;20033;-49
2024/03/31 03:17:28;;;;;;;3.20;2.40;;;;;;;21.62;34.39;98951.63;4531880;28;20078;-49
2024/03/31 03:19:39;;;;;;;3.75;2.67;;;;;;;21.62;34.80;98958.19;4532557;28;20036;-49
2024/03/31 03:21:50;;;;;;;3.92;2.60;;;;;;;21.61;34.69;98950.78;4516431;28;20394;-49
2024/03/31 03:24:01;;;;;;;3.80;2.70;;;;;;;21.58;34.81;98957.38;4510142;28;20072;-49
2024/03/31 03:26:11;;;;;;;3.97;2.58;;;;;;;21.60;34.73;98960.66;4524870;28;20034;-49
2024/03/31 03:28:22;;;;;;;3.88;2.40;;;;;;;21.60;34.91;98960.66;4527138;28;20037;-49
2024/03/31 03:30:37;;;;;;;4.22;2.70;;;;;;;21.60;34.65;98966.38;4521894;28;20034;-50
2024/03/31 03:32:50;;;;;;;3.45;2.53;;;;;;;21.60;34.57;98959.81;4533892;28;20662;-49
2024/03/31 03:35:01;;;;;;;3.88;2.60;;;;;;;21.60;34.68;98969.25;4527220;28;20634;-50
2024/03/31 03:37:11;;;;;;;4.47;2.85;;;;;;;21.59;34.68;98970.50;4519932;28;20170;-49
2024/03/31 03:39:22;;;;;;;3.72;2.80;;;;;;;21.59;34.79;98966.81;4519493;28;20044;-49
2024/03/31 03:41:33;;;;;;;4.00;2.65;;;;;;;21.59;34.93;98970.50;4519566;28;20102;-50
2024/03/31 03:43:43;;;;;;;4.32;2.47;;;;;;;21.58;35.36;98963.09;4534686;28;20035;-50
2024/03/31 03:45:54;;;;;;;3.00;2.45;;;;;;;21.58;35.14;98962.31;4520286;28;20038;-53
2024/03/31 03:48:05;;;;;;;5.13;2.83;;;;;;;21.57;35.08;98961.47;4519922;28;20117;-51
2024/03/31 03:50:15;;;;;;;3.60;2.90;;;;;;;21.57;35.52;98961.47;4527020;28;20441;-49
2024/03/31 03:52:26;;;;;;;4.57;2.80;;;;;;;21.57;35.55;98963.53;4519664;28;20041;-49
2024/03/31 03:54:36;;;;;;;3.60;2.50;;;;;;;21.57;35.74;98963.53;4519715;28;20037;-50
2024/03/31 03:56:46;;;;;;;4.63;2.97;;;;;;;21.56;35.37;98959.84;4519675;28;20033;-51
2024/03/31 03:59:00;;;;;;;4.40;2.80;;;;;;;21.56;35.46;98965.59;4506154;28;20065;-49
2024/03/31 04:01:11;;;;;;;4.30;2.92;;;;;;;21.56;35.22;98959.03;4526211;28;20052;-49
2024/03/31 04:03:21;;;;;;;4.22;3.08;;;;;;;21.55;35.54;98963.94;4534752;28;20029;-49
2024/03/31 04:05:32;;;;;;;5.38;2.95;;;;;;;21.56;35.95;98961.88;4520896;28;20042;-50
2024/03/31 04:07:42;;;;;;;6.07;3.30;;;;;;;21.55;35.58;98958.19;4532452;28;20059;-53
2024/03/31 04:09:53;;;;;;;3.80;3.10;;;;;;;21.55;35.77;98960.25;4527874;28;20045;-51
2024/03/31 04:12:03;;;;;;;6.03;2.95;;;;;;;21.54;35.52;98952.88;4519489;28;20624;-49
2024/03/31 04:14:14;;;;;;;6.13;3.45;;;;;;;21.54;35.64;98956.56;4515255;28;20060;-49
2024/03/31 04:16:24;;;;;;;4.85;3.50;;;;;;;21.54;35.96;98947.13;4519064;28;20052;-49
2024/03/31 04:18:35;;;;;;;7.07;3.53;;;;;;;21.53;35.40;98954.91;4520955;28;20068;-49
2024/03/31 04:20:46;;;;;;;4.68;3.15;;;;;;;21.54;35.81;98955.72;4516933;28;20038;-48
2024/03/31 04:22:56;;;;;;;5.85;3.55;;;;;;;21.54;35.72;98956.56;4523267;28;20128;-49
2024/03/31 04:25:07;;;;;;;4.45;3.30;;;;;;;21.52;35.47;98959.03;4520720;28;20077;-50
2024/03/31 04:27:17;;;;;;;5.35;3.60;;;;;;;21.53;35.50;98954.91;4518546;28;20030;-49
2024/03/31 04:29:28;;;;;;;4.00;3.30;;;;;;;21.52;35.74;98959.03;4502940;28;20066;-49
2024/03/31 04:31:52;;;;;;;5.57;3.47;;;;;;;21.52;35.59;98959.03;4519037;28;20049;-49
2024/03/31 04:34:03;;;;;;;4.32;3.30;;;;;;;21.52;35.60;98964.75;4525644;28;20030;-50
2024/03/31 04:36:14;;;;;;;6.28;3.60;;;;;;;21.51;35.75;98968.88;4518103;28;20422;-48
2024/03/31 04:38:25;;;;;;;5.00;3.35;;;;;;;21.52;35.80;98969.69;4526150;28;20040;-49
2024/03/31 04:40:35;;;;;;;5.32;3.33;;;;;;;21.51;36.22;98976.66;4532028;28;20041;-49
2024/03/31 04:42:46;;;;;;;5.53;3.33;;;;;;;21.51;36.14;98983.22;4517842;28;20529;-48
2024/03/31 04:44:56;;;;;;;4.78;3.00;;;;;;;21.50;36.22;98972.97;4534032;28;20061;-48
2024/03/31 04:47:07;;;;;;;5.65;3.60;;;;;;;21.50;36.62;98972.97;4532863;28;20144;-50
2024/03/31 04:49:17;;;;;;;4.93;3.70;;;;;;;21.49;36.38;98971.34;4519755;28;20030;-49
2024/03/31 04:51:29;;;;;;;6.60;3.90;;;;;;;21.50;36.48;98970.09;4518278;28;20127;-53
2024/03/31 04:53:41;;;;;;;5.45;3.88;;;;;;;21.49;36.73;98973.38;4525518;28;20177;-49
2024/03/31 04:55:53;;;;;;;6.75;3.83;;;;;;;21.49;36.56;98965.59;4520523;28;20029;-50
2024/03/31 04:58:03;;;;;;;7.78;3.97;;;;;;;21.48;36.17;98963.97;4532140;28;20045;-49
2024/03/31 05:00:14;;;;;;;5.82;3.60;;;;;;;21.49;36.19;98959.03;4519898;28;20114;-50
2024/03/31 05:02:25;;;;;;;6.55;4.00;;;;;;;21.49;36.73;98965.59;4519384;28;20141;-49
2024/03/31 05:04:36;;;;;;;7.10;3.80;;;;;;;21.48;36.56;98963.97;4534351;28;20117;-48
2024/03/31 05:06:46;;;;;;;8.00;4.28;;;;;;;21.48;36.52;98963.13;4518966;28;20026;-49
2024/03/31 05:08:57;;;;;;;5.63;3.63;;;;;;;21.60;36.25;98959.81;4525169;28;20041;-49
2024/03/31 05:11:07;;;;;;;6.10;4.07;;;;;;;21.53;36.86;98952.03;4525516;28;20029;-49
2024/03/31 05:13:17;;;;;;;6.70;4.35;;;;;;;21.50;36.53;98958.59;4519222;28;20584;-49
2024/03/31 05:15:28;;;;;;;6.63;4.30;;;;;;;21.49;36.45;98959.84;4517814;28;20033;-50
2024/03/31 05:17:38;;;;;;;7.10;4.60;;;;;;;21.48;36.43;98952.47;4525174;28;20041;-49
2024/03/31 05:19:52;;;;;;;5.38;3.33;;;;;;;21.55;36.90;98957.41;4534295;28;20052;-48
2024/03/31 05:22:03;;;;;;;4.88;3.40;;;;;;;21.65;36.49;98956.53;4533244;28;20044;-49
2024/03/31 05:24:13;;;;;;;4.03;3.40;;;;;;;21.65;36.42;98950.78;4525336;28;20037;-52
2024/03/31 05:26:24;;;;;;;5.40;3.60;;;;;;;21.57;37.27;98960.66;4518503;28;20033;-49
2024/03/31 05:28:36;;;;;;;5.38;3.53;;;;;;;21.53;37.03;98954.91;4518525;28;20036;-50
2024/03/31 05:30:47;;;;;;;5.63;3.70;;;;;;;21.51;36.86;98953.69;4524731;28;20041;-50
2024/03/31 05:32:57;;;;;;;7.57;4.40;;;;;;;21.50;36.72;98963.56;4522176;28;20215;-48
2024/03/31 05:35:18;;;;;;;6.32;4.15;;;;;;;21.48;36.68;98961.09;4522902;28;20164;-49
2024/03/31 05:37:29;;;;;;;6.00;3.85;;;;;;;21.47;36.87;98962.31;4517842;28;20615;-49
2024/03/31 05:39:39;;;;;;;5.28;3.28;;;;;;;21.54;36.93;98955.72;4517948;28;20061;-50
2024/03/31 05:41:51;;;;;;;6.88;3.63;;;;;;;21.56;36.44;98962.72;4517577;28;20025;-50
2024/03/31 05:44:03;;;;;;;8.18;3.70;;;;;;;21.51;37.42;98971.75;4517961;28;20060;-49
2024/03/31 05:46:14;;;;;;;6.40;3.70;;;;;;;21.49;37.19;98962.72;4521416;28;20030;-49
2024/03/31 05:48:25;;;;;;;6.72;4.00;;;;;;;21.47;36.87;98965.19;4518864;28;20034;-50
2024/03/31 05:50:37;;;;;;;5.03;3.58;;;;;;;21.47;36.86;98973.00;4517036;28;20034;-50
2024/03/31 05:52:47;;;;;;;7.78;3.95;;;;;;;21.45;37.27;98970.53;4508005;28;20935;-52
2024/03/31 05:54:58;;;;;;;4.75;3.58;;;;;;;21.45;37.00;98964.78;4525486;28;20037;-49
2024/03/31 05:57:08;;;;;;;7.03;3.78;;;;;;;21.43;37.23;98967.25;4518386;28;20038;-52
2024/03/31 05:59:19;;;;;;;6.20;4.00;;;;;;;21.43;37.13;98975.84;4516134;28;20095;-50
2024/03/31 06:01:29;;;;;;;6.32;4.00;;;;;;;21.43;37.26;98961.50;4518033;28;20507;-48
2024/03/31 06:03:40;;;;;;;5.15;2.90;;;;;;;21.47;37.59;98973.00;4525036;28;20409;-49
2024/03/31 06:05:50;;;;;;;4.72;3.50;;;;;;;21.52;36.99;98964.75;4519191;28;20112;-49
2024/03/31 06:08:01;;;;;;;6.05;3.75;;;;;;;21.48;37.67;98966.00;4518947;28;20581;-49
2024/03/31 06:10:11;;;;;;;6.03;3.92;;;;;;;21.46;37.44;98960.69;4519056;28;20490;-49
2024/03/31 06:12:22;;;;;;;6.47;3.60;;;;;;;21.44;37.69;98963.13;4524841;28;20096;-49
2024/03/31 06:14:32;;;;;;;6.88;3.95;;;;;;;21.44;37.79;98962.31;4517502;28;20037;-49
2024/03/31 06:16:42;;;;;;;5.63;3.65;;;;;;;21.52;37.52;98964.75;4517403;28;20034;-50
2024/03/31 06:18:53;;;;;;;6.38;3.22;;;;;;;21.49;37.88;98961.88;4516796;28;20678;-48
2024/03/31 06:21:06;;;;;;;4.68;3.60;;;;;;;21.45;38.08;98959.06;4519267;28;20038;-52
2024/03/31 06:23:16;;;;;;;5.32;3.90;;;;;;;21.44;37.51;98953.69;4524314;28;20021;-49
2024/03/31 06:25:27;;;;;;;5.70;3.20;;;;;;;21.47;37.46;98962.31;4517567;28;20034;-50
2024/03/31 06:27:37;;;;;;;4.85;3.50;;;;;;;21.57;37.75;98960.66;4502807;28;20034;-49
2024/03/31 06:29:51;;;;;;;4.80;3.50;;;;;;;21.64;37.54;98961.47;4502001;28;20053;-49
2024/03/31 06:32:02;;;;;;;5.03;3.25;;;;;;;21.69;37.13;98958.16;4517511;28;20041;-49
2024/03/31 06:34:12;;;;;;;3.88;3.17;;;;;;;21.73;37.04;98958.97;4533712;28;20394;-48
2024/03/31 06:36:23;;;;;;;3.63;3.17;;;;;;;21.74;37.12;98954.88;4516778;28;20036;-49
2024/03/31 06:38:33;;;;;;;3.47;2.83;;;;;;;21.78;37.11;98958.59;4518809;28;20108;-49
2024/03/31 06:40:44;;;;;;;3.30;2.70;;;;;;;21.80;36.87;98964.72;4517502;28;20025;-51
2024/03/31 06:42:56;;;;;;;3.08;2.38;;;;;;;21.80;37.23;98958.97;4519069;28;20951;-48
2024/03/31 06:45:06;;;;;;;3.72;2.58;;;;;;;21.82;36.70;98967.19;4523975;28;20038;-50
2024/03/31 06:47:17;;;;;;;3.30;2.30;;;;;;;21.80;37.12;98961.84;4525410;28;20576;-49
2024/03/31 06:49:27;;;;;;;3.10;2.17;;;;;;;21.82;37.09;98958.56;4515114;28;20028;-49
2024/03/31 06:51:37;;;;;;;2.00;1.80;;;;;;;21.82;36.99;98962.25;4518218;28;20038;-50
2024/03/31 06:53:50;;;;;;;1.17;0.95;;;;;;;21.85;41.29;98964.28;4523009;28;20075;-50
2024/03/31 06:56:00;;;;;;;2.22;1.30;;;;;;;21.87;41.84;98970.47;4530006;28;20124;-54
2024/03/31 06:58:11;;;;;;;1.70;1.23;;;;;;;21.87;41.49;98967.59;4500875;28;20862;-49
2024/03/31 07:00:22;;;;;;;2.08;1.20;;;;;;;21.89;41.66;98965.13;4525882;28;20061;-50
2024/03/31 07:02:32;;;;;;;2.67;1.10;;;;;;;21.92;41.54;98961.41;4520909;28;20422;-51
2024/03/31 07:04:43;;;;;;;1.80;1.17;;;;;;;21.91;41.98;98971.25;4517381;28;20158;-48
2024/03/31 07:06:53;;;;;;;1.45;0.90;;;;;;;21.91;41.73;98965.50;4534867;28;20038;-49
2024/03/31 07:09:04;;;;;;;1.63;0.95;;;;;;;21.90;41.51;98960.19;4522406;28;20034;-49
2024/03/31 07:11:14;;;;;;;0.98;0.90;;;;;;;21.90;41.53;98952.38;4501487;28;20582;-49
2024/03/31 07:13:25;;;;;;;1.75;1.20;;;;;;;21.91;41.56;98947.47;4518091;28;20029;-52
2024/03/31 07:15:35;;;;;;;2.05;1.20;;;;;;;21.90;41.60;98946.66;4516866;28;20125;-50
2024/03/31 07:17:48;;;;;;;1.63;1.10;;;;;;;21.95;41.79;98954.84;4517552;28;20041;-55
2024/03/31 07:19:58;;;;;;;1.67;1.30;;;;;;;21.97;41.47;98952.38;4509794;28;20540;-49
2024/03/31 07:22:09;;;;;;;1.45;1.00;;;;;;;21.98;41.74;98948.25;4520310;28;20038;-49
2024/03/31 07:24:19;;;;;;;3.45;1.20;;;;;;;21.98;41.93;98959.75;4534701;28;20044;-50
2024/03/31 07:26:30;;;;;;;1.95;1.13;;;;;;;22.00;41.93;98968.78;4519946;28;20026;-49
2024/03/31 07:28:40;;;;;;;1.50;1.10;;;;;;;21.99;42.08;98966.31;4533751;28;20027;-52
2024/03/31 07:30:51;;;;;;;1.88;1.02;;;;;;;22.00;42.09;98965.06;4520535;28;20045;-49
2024/03/31 07:33:01;;;;;;;2.42;1.40;;;;;;;21.99;42.24;98954.84;4527983;28;20116;-49
2024/03/31 07:35:12;;;;;;;1.65;1.10;;;;;;;21.98;41.66;98950.31;4536083;28;20068;-49
2024/03/31 07:37:22;;;;;;;3.28;1.15;;;;;;;21.98;41.71;98942.50;4534583;28;20045;-48
2024/03/31 07:39:35;;;;;;;2.05;1.15;;;;;;;22.00;41.69;98942.91;4534686;28;20025;-50
2024/03/31 07:41:45;;;;;;;1.10;0.90;;;;;;;22.03;41.92;98944.97;4534632;28;20044;-51
2024/03/31 07:43:56;;;;;;;1.75;1.02;;;;;;;22.04;41.91;98934.28;4534754;28;20047;-48
2024/03/31 07:46:06;;;;;;;1.33;1.00;;;;;;;22.02;42.00;98926.06;4518172;28;20042;-50
2024/03/31 07:48:16;;;;;;;2.72;1.10;;;;;;;22.02;42.17;98928.13;4534021;28;20039;-50
2024/03/31 07:50:27;;;;;;;1.67;1.00;;;;;;;22.04;41.67;98928.53;4526436;28;20033;-49
2024/03/31 07:52:38;;;;;;;1.30;1.02;;;;;;;22.02;41.85;98928.13;4533496;28;20120;-49
2024/03/31 07:54:48;;;;;;;2.70;0.98;;;;;;;22.01;42.27;98924.44;4516621;28;20084;-50
2024/03/31 07:56:59;;;;;;;1.45;1.10;;;;;;;22.01;41.80;98930.19;4534437;28;20136;-50
2024/03/31 07:59:09;;;;;;;2.13;1.00;;;;;;;22.03;41.79;98929.75;4532798;28;20475;-50
2024/03/31 08:01:19;;;;;;;1.25;1.15;;;;;;;22.03;41.86;98927.72;4535612;28;20041;-50
2024/03/31 08:03:30;;;;;;;1.48;0.95;;;;;;;22.00;41.75;98931.44;4517190;28;20108;-49
2024/03/31 08:05:40;;;;;;;2.22;1.10;;;;;;;22.00;42.20;98928.56;4533797;28;20044;-52
2024/03/31 08:07:51;;;;;;;1.38;1.10;;;;;;;22.02;41.80;98937.56;4523013;28;20913;-53
2024/03/31 08:10:14;;;;;;;1.75;1.10;;;;;;;22.02;41.83;98936.75;4522592;28;20041;-50
2024/03/31 08:12:24;;;;;;;2.10;1.33;;;;;;;22.00;42.31;98940.03;4528545;28;20028;-49
2024/03/31 08:14:34;;;;;;;3.28;1.10;;;;;;;22.01;41.92;98940.84;4534692;28;20032;-50
2024/03/31 08:16:45;;;;;;;1.63;1.00;;;;;;;22.00;42.20;98948.66;4516905;28;25206;-49
2024/03/31 08:18:57;;;;;;;2.10;1.20;;;;;;;22.01;42.07;98944.53;4533777;28;20048;-51
2024/03/31 08:21:14;;;;;;;2.08;1.10;;;;;;;22.00;42.32;98942.91;4501378;28;20030;-52
2024/03/31 08:23:24;;;;;;;2.15;1.15;;;;;;;22.00;42.14;98934.31;4532622;28;20040;-49
2024/03/31 08:25:37;;;;;;;1.90;1.00;;;;;;;22.02;42.22;98937.56;4533880;28;20026;-50
2024/03/31 08:28:15;;;;;;;1.83;1.00;;;;;;;22.01;42.16;98946.59;4519205;28;20038;-50
2024/03/31 08:30:25;;;;;;;1.00;0.82;;;;;;;22.01;42.29;98938.81;4534731;28;20842;-50
2024/03/31 08:32:36;;;;;;;1.45;1.00;;;;;;;22.00;41.92;98928.56;4533053;28;20033;-49
2024/03/31 08:34:46;;;;;;;1.92;1.10;;;;;;;21.98;41.83;98939.63;4531973;28;20537;-51
2024/03/31 08:36:57;;;;;;;2.72;1.00;;;;;;;21.99;42.07;98937.59;4518615;28;20045;-51
2024/03/31 08:39:10;;;;;;;1.73;1.23;;;;;;;21.99;42.13;98931.84;4533683;28;20037;-50
2024/03/31 08:41:33;;;;;;;2.65;1.10;;;;;;;21.98;42.17;98918.69;4519563;28;20088;-50
2024/03/31 08:44:15;;;;;;;2.17;1.00;;;;;;;21.97;42.18;98931.44;4535999;28;20055;-50
2024/03/31 08:46:26;;;;;;;1.33;0.90;;;;;;;21.95;42.21;98923.22;4534257;28;20065;-50
2024/03/31 08:48:37;;;;;;;2.05;0.90;;;;;;;21.95;42.09;98911.75;4533587;28;20120;-49
2024/03/31 08:50:48;;;;;;;2.10;1.08;;;;;;;22.00;42.37;98911.31;4522063;28;20061;-50
2024/03/31 08:52:59;;;;;;;2.08;1.20;;;;;;;22.00;42.29;98911.31;4534275;28;20469;-49
2024/03/31 08:55:10;;;;;;;1.45;1.00;;;;;;;22.00;41.99;98905.56;4534095;28;20564;-50
2024/03/31 08:57:20;;;;;;;1.95;1.13;;;;;;;22.02;42.03;98908.03;4535170;28;20041;-50
2024/03/31 08:59:30;;;;;;;1.40;1.08;;;;;;;22.02;42.12;98894.47;4533292;28;20120;-49
2024/03/31 09:01:41;;;;;;;1.17;1.02;;;;;;;21.99;42.31;98892.41;4532801;28;20436;-51
2024/03/31 09:03:51;;;;;;;1.10;0.98;;;;;;;22.03;41.97;98899.00;4534645;28;20088;-49
2024/03/31 09:06:03;;;;;;;1.95;1.10;;;;;;;22.05;41.91;98904.31;4532709;28;20071;-54
2024/03/31 09:08:14;;;;;;;2.00;1.05;;;;;;;22.06;42.34;98900.19;4532005;28;20079;-62
2024/03/31 09:10:25;;;;;;;1.50;1.17;;;;;;;22.02;42.82;98879.28;4533120;28;20025;-61
2024/03/31 09:12:52;;;;;;;2.55;1.00;;;;;;;22.02;42.72;98882.97;4525570;28;20899;-61
2024/03/31 09:15:02;;;;;;;1.55;1.00;;;;;;;22.03;42.81;98886.66;4534184;28;20041;-59
2024/03/31 09:17:14;;;;;;;2.83;1.10;;;;;;;22.04;42.54;98882.56;4535306;28;20532;-49
2024/03/31 09:19:25;;;;;;;1.02;0.90;;;;;;;22.04;42.76;98879.72;4532329;28;20124;-50
2024/03/31 09:21:48;;;;;;;3.25;1.20;;;;;;;22.10;42.86;98869.41;4518108;28;20034;-50
2024/03/31 09:23:58;;;;;;;3.63;1.27;;;;;;;22.10;42.58;98875.94;4534384;28;21213;-53
2024/03/31 09:26:10;;;;;;;1.30;1.00;;;;;;;22.09;42.54;98871.44;4533847;28;20034;-50
2024/03/31 09:28:20;;;;;;;1.90;1.10;;;;;;;22.05;42.57;98872.72;4532816;28;20029;-51
2024/03/31 09:30:34;;;;;;;2.95;1.10;;;;;;;22.04;42.98;98866.13;4533811;28;20417;-51
2024/03/31 09:32:47;;;;;;;1.88;1.17;;;;;;;22.02;42.87;98857.09;4516412;28;20037;-51
2024/03/31 09:34:58;;;;;;;1.88;1.10;;;;;;;22.04;42.53;98853.84;4530733;28;20045;-50
2024/03/31 09:37:10;;;;;;;1.85;1.30;;;;;;;22.03;42.62;98852.19;4532606;28;20038;-50
2024/03/31 09:39:21;;;;;;;2.53;1.08;;;;;;;22.05;42.49;98843.97;4524867;28;20052;-50
2024/03/31 09:41:32;;;;;;;4.45;1.30;;;;;;;22.06;42.33;98843.56;4532055;28;22217;-50
2024/03/31 09:43:42;;;;;;;2.40;1.08;;;;;;;21.99;42.83;98837.84;4532723;28;20033;-49
2024/03/31 09:45:53;;;;;;;3.15;1.10;;;;;;;22.01;42.56;98826.75;4531877;28;20041;-51
2024/03/31 09:48:10;;;;;;;4.57;1.27;;;;;;;22.05;42.65;98821.00;4533193;28;20176;-50
2024/03/31 09:50:31;;;;;;;5.15;1.40;;;;;;;22.07;42.60;98836.56;4532225;28;20017;-49
2024/03/31 09:52:43;;;;;;;4.10;1.33;;;;;;;22.09;42.94;98828.34;4534228;28;20107;-50
2024/03/31 09:54:57;;;;;;;4.72;1.48;;;;;;;22.10;42.83;98823.44;4524615;28;20037;-50
2024/03/31 09:57:11;;;;;;;3.72;1.30;;;;;;;22.13;42.80;98832.03;4531999;28;20662;-51
2024/03/31 09:59:25;;;;;;;3.45;1.10;;;;;;;21.95;43.28;98828.44;4532570;28;20033;-50
2024/03/31 10:01:39;;;;;;;3.95;1.35;;;;;;;21.69;43.04;98828.94;4531597;28;20037;-50
2024/03/31 10:03:55;;;;;;;2.22;1.02;;;;;;;21.56;43.47;98827.78;4532845;28;20064;-50
2024/03/31 10:06:06;;;;;;;2.83;1.20;;;;;;;21.48;43.17;98829.06;4534674;28;20038;-50
2024/03/31 10:08:17;;;;;;;3.90;1.30;;;;;;;21.43;43.00;98829.47;4532824;28;20126;-50
2024/03/31 10:10:29;;;;;;;2.58;1.10;;;;;;;21.39;43.71;98831.53;4532225;28;20775;-50
2024/03/31 10:12:40;;;;;;;1.85;1.10;;;;;;;21.35;43.07;98833.59;4516444;28;20213;-52
2024/03/31 10:14:51;;;;;;;2.17;1.08;;;;;;;21.32;43.24;98828.69;4533484;28;20086;-51
2024/03/31 10:17:01;;;;;;;3.25;0.73;;;;;;;21.32;43.41;98822.13;4523738;28;20045;-51
2024/03/31 10:19:14;;;;;;;2.63;0.98;;;;;;;21.29;44.43;98815.19;4532527;28;20387;-49